createdAt,value
2023-01-21T00:00:39.012Z,44.38
2023-01-21T00:03:05.468Z,42.53
2023-01-21T00:05:32.065Z,38.67
2023-01-21T00:07:58.838Z,44.55
2023-01-21T00:10:26.090Z,42.95
2023-01-21T00:12:52.612Z,43.38
2023-01-21T00:15:19.030Z,40.15
2023-01-21T00:17:45.529Z,42.53
2023-01-21T00:20:13.441Z,40.78
2023-01-21T00:22:39.863Z,40.85
2023-01-21T00:25:06.900Z,38.38
2023-01-21T00:27:33.335Z,40.65
2023-01-21T00:29:59.788Z,41.15
2023-01-21T00:32:26.206Z,40.83
2023-01-21T00:34:52.719Z,44.30
2023-01-21T00:37:19.211Z,41.63
2023-01-21T00:39:45.844Z,45.15
2023-01-21T00:42:12.295Z,43.63
2023-01-21T00:44:39.106Z,44.72
2023-01-21T00:47:06.436Z,45.00
2023-01-21T00:49:33.432Z,45.70
2023-01-21T00:51:59.952Z,46.58
2023-01-21T00:54:26.492Z,50.08
2023-01-21T00:56:52.937Z,42.75
2023-01-21T00:59:19.867Z,49.67
2023-01-21T01:01:46.421Z,43.63
2023-01-21T01:04:13.468Z,44.50
2023-01-21T01:06:40.196Z,43.58
2023-01-21T01:09:06.740Z,46.28
2023-01-21T01:11:33.247Z,43.88
2023-01-21T01:13:59.922Z,45.22
2023-01-21T01:16:26.449Z,45.10
2023-01-21T01:18:52.915Z,44.53
2023-01-21T01:21:22.462Z,46.33
2023-01-21T01:23:54.748Z,43.95
2023-01-21T01:26:22.298Z,40.63
2023-01-21T01:28:48.842Z,43.53
2023-01-21T01:31:17.737Z,45.50
2023-01-21T01:33:44.323Z,43.60
2023-01-21T01:36:16.137Z,43.45
2023-01-21T01:38:42.817Z,43.13
2023-01-21T01:41:15.487Z,44.83
2023-01-21T01:44:20.336Z,47.08
2023-01-21T01:46:46.880Z,44.65
2023-01-21T01:49:21.131Z,46.22
2023-01-21T01:51:56.125Z,45.78
2023-01-21T01:54:32.244Z,41.20
2023-01-21T01:57:01.270Z,44.83
2023-01-21T01:59:29.360Z,41.92
2023-01-21T02:01:58.671Z,44.47
2023-01-21T02:04:29.533Z,43.72
2023-01-21T02:06:57.476Z,45.08
2023-01-21T02:09:29.542Z,45.63
2023-01-21T02:12:01.268Z,47.63
2023-01-21T02:14:29.670Z,42.03
2023-01-21T02:17:24.225Z,46.10
2023-01-21T02:20:16.002Z,47.90
2023-01-21T02:23:08.583Z,47.85
2023-01-21T02:26:05.811Z,48.33
2023-01-21T02:28:45.848Z,49.17
2023-01-21T02:31:34.336Z,43.40
2023-01-21T02:34:14.001Z,44.85
2023-01-21T02:37:00.845Z,47.67
2023-01-21T02:39:50.322Z,46.53
2023-01-21T02:42:47.692Z,47.58
2023-01-21T02:45:39.096Z,50.65
2023-01-21T02:48:29.069Z,47.95
2023-01-21T02:50:56.075Z,43.78
2023-01-21T02:53:27.509Z,49.17
2023-01-21T02:55:56.095Z,45.88
2023-01-21T02:58:28.692Z,48.35
2023-01-21T03:01:37.185Z,49.30
2023-01-21T03:04:38.554Z,47.55
2023-01-21T03:07:22.290Z,47.65
2023-01-21T03:09:48.984Z,48.58
2023-01-21T03:12:43.266Z,46.42
2023-01-21T03:15:48.108Z,48.00
2023-01-21T03:18:33.850Z,48.78
2023-01-21T03:21:07.375Z,49.03
2023-01-21T03:23:41.101Z,47.08
2023-01-21T03:26:10.564Z,46.60
2023-01-21T03:28:44.682Z,50.28
2023-01-21T03:31:33.351Z,45.05
2023-01-21T03:34:06.496Z,46.83
2023-01-21T03:39:45.598Z,47.83
2023-01-21T03:42:13.870Z,48.67
2023-01-21T03:44:41.013Z,47.67
2023-01-21T03:47:31.202Z,46.03
2023-01-21T03:50:04.327Z,51.75
2023-01-21T03:52:31.888Z,46.40
2023-01-21T03:54:58.897Z,49.20
2023-01-21T03:57:25.488Z,45.92
2023-01-21T03:59:53.350Z,45.80
2023-01-21T04:02:21.043Z,44.72
2023-01-21T04:04:48.300Z,51.55
2023-01-21T04:07:16.021Z,50.42
2023-01-21T04:09:42.516Z,44.00
2023-01-21T04:12:09.067Z,51.20
2023-01-21T04:14:35.620Z,49.05
2023-01-21T04:17:02.022Z,49.72
2023-01-21T04:19:28.467Z,56.05
2023-01-21T04:21:54.975Z,54.50
2023-01-21T04:24:21.479Z,55.90
2023-01-21T04:26:48.081Z,57.08
2023-01-21T04:29:14.701Z,57.83
2023-01-21T04:31:41.407Z,56.55
2023-01-21T04:34:07.917Z,54.05
2023-01-21T04:36:34.442Z,62.53
2023-01-21T04:39:01.583Z,58.55
2023-01-21T04:41:28.046Z,59.22
2023-01-21T04:43:54.533Z,58.75
2023-01-21T04:46:21.001Z,52.63
2023-01-21T04:48:47.806Z,56.13
2023-01-21T04:51:14.282Z,55.58
2023-01-21T04:53:40.843Z,51.90
2023-01-21T04:56:07.567Z,56.60
2023-01-21T04:58:34.549Z,58.05
2023-01-21T05:01:01.055Z,50.75
2023-01-21T05:03:27.915Z,57.85
2023-01-21T05:05:54.420Z,51.95
2023-01-21T05:08:21.148Z,57.85
2023-01-21T05:10:47.745Z,60.40
2023-01-21T05:13:14.182Z,54.10
2023-01-21T05:15:40.637Z,55.55
2023-01-21T05:18:07.406Z,57.20
2023-01-21T05:20:33.869Z,60.20
2023-01-21T05:23:00.273Z,57.92
2023-01-21T05:25:26.694Z,64.55
2023-01-21T05:27:55.033Z,56.58
2023-01-21T05:30:22.181Z,60.97
2023-01-21T05:32:54.936Z,64.30
2023-01-21T05:35:23.336Z,61.15
2023-01-21T05:37:50.273Z,57.65
2023-01-21T05:40:17.954Z,58.75
2023-01-21T05:42:45.750Z,58.53
2023-01-21T05:45:12.678Z,61.33
2023-01-21T05:47:39.125Z,62.42
2023-01-21T05:50:06.279Z,58.60
2023-01-21T05:52:32.697Z,56.83
2023-01-21T05:55:02.236Z,57.72
2023-01-21T05:57:30.172Z,57.08
2023-01-21T05:59:56.877Z,60.88
2023-01-21T06:02:23.886Z,56.25
2023-01-21T06:04:50.433Z,55.35
2023-01-21T06:07:17.225Z,64.35
2023-01-21T06:09:43.682Z,56.45
2023-01-21T06:12:10.193Z,54.28
2023-01-21T06:14:36.969Z,55.58
2023-01-21T06:17:03.561Z,57.28
2023-01-21T06:19:30.006Z,57.17
2023-01-21T06:21:56.430Z,63.15
2023-01-21T06:24:22.919Z,60.40
2023-01-21T06:26:49.393Z,61.08
2023-01-21T06:29:16.062Z,60.60
2023-01-21T06:31:42.636Z,63.45
2023-01-21T06:34:09.852Z,63.38
2023-01-21T06:36:36.316Z,64.68
2023-01-21T06:39:02.885Z,65.78
2023-01-21T06:41:29.301Z,68.53
2023-01-21T06:43:55.750Z,72.28
2023-01-21T06:46:22.235Z,67.53
2023-01-21T06:48:48.743Z,68.22
2023-01-21T06:51:15.264Z,68.50
2023-01-21T06:53:41.762Z,62.65
2023-01-21T06:56:08.183Z,70.10
2023-01-21T06:58:34.584Z,70.68
2023-01-21T07:01:01.144Z,71.00
2023-01-21T07:03:27.580Z,73.60
2023-01-21T07:05:54.025Z,73.68
2023-01-21T07:08:20.448Z,67.07
2023-01-21T07:10:47.803Z,66.38
2023-01-21T07:13:14.525Z,72.28
2023-01-21T07:15:41.084Z,67.40
2023-01-21T07:18:07.639Z,68.95
2023-01-21T07:20:34.638Z,71.78
2023-01-21T07:23:01.125Z,71.00
2023-01-21T07:25:27.671Z,66.80
2023-01-21T07:27:54.106Z,76.57
2023-01-21T07:30:21.328Z,73.25
2023-01-21T07:32:47.890Z,78.28
2023-01-21T07:35:14.690Z,77.22
2023-01-21T07:37:41.315Z,78.38
2023-01-21T07:40:08.531Z,79.00
2023-01-21T07:42:34.954Z,75.18
2023-01-21T07:45:03.801Z,73.85
2023-01-21T07:47:30.481Z,79.65
2023-01-21T07:49:56.903Z,76.90
2023-01-21T07:52:23.327Z,78.78
2023-01-21T07:54:49.846Z,78.63
2023-01-21T07:57:16.316Z,77.95
2023-01-21T07:59:43.000Z,78.65
2023-01-21T08:02:11.760Z,80.18
2023-01-21T08:04:38.743Z,77.90
2023-01-21T08:07:11.976Z,76.70
2023-01-21T08:09:39.692Z,80.63
2023-01-21T08:12:07.467Z,82.20
2023-01-21T08:14:34.389Z,80.20
2023-01-21T08:17:01.563Z,86.88
2023-01-21T08:19:28.038Z,84.10
2023-01-21T08:21:54.485Z,84.15
2023-01-21T08:24:21.282Z,82.97
2023-01-21T08:26:48.987Z,89.88
2023-01-21T08:29:15.445Z,87.07
2023-01-21T08:31:42.030Z,85.90
2023-01-21T08:34:08.574Z,87.53
2023-01-21T08:36:35.090Z,98.35
2023-01-21T08:39:01.940Z,93.70
2023-01-21T08:41:28.782Z,91.95
2023-01-21T08:43:55.324Z,92.70
2023-01-21T08:46:21.731Z,90.60
2023-01-21T08:48:48.613Z,96.57
2023-01-21T08:51:15.128Z,85.95
2023-01-21T08:53:41.699Z,90.03
2023-01-21T08:56:08.147Z,95.25
2023-01-21T08:58:34.890Z,94.72
2023-01-21T09:01:10.063Z,95.28
2023-01-21T09:03:37.275Z,95.13
2023-01-21T09:06:05.254Z,90.85
2023-01-21T09:08:32.524Z,86.05
2023-01-21T09:11:03.391Z,87.07
2023-01-21T09:13:38.228Z,84.47
2023-01-21T09:16:13.405Z,79.57
2023-01-21T09:18:40.151Z,88.20
2023-01-21T09:21:07.014Z,84.55
2023-01-21T09:23:34.699Z,78.63
2023-01-21T09:26:03.247Z,82.63
2023-01-21T09:28:31.464Z,79.38
2023-01-21T09:30:59.650Z,82.55
2023-01-21T09:33:27.966Z,70.68
2023-01-21T09:35:55.788Z,73.93
2023-01-21T09:38:23.074Z,79.28
2023-01-21T09:40:49.953Z,73.25
2023-01-21T09:43:28.072Z,75.03
2023-01-21T09:45:59.122Z,85.35
2023-01-21T09:48:31.287Z,82.15
2023-01-21T09:51:02.456Z,74.55
2023-01-21T09:53:46.671Z,79.65
2023-01-21T09:56:31.298Z,78.35
2023-01-21T09:59:08.049Z,78.35
2023-01-21T10:01:38.753Z,74.53
2023-01-21T10:04:37.748Z,84.68
2023-01-21T10:07:14.311Z,83.68
2023-01-21T10:10:02.843Z,82.93
2023-01-21T10:12:40.155Z,80.63
2023-01-21T10:15:35.214Z,84.90
2023-01-21T10:18:04.885Z,80.03
2023-01-21T10:20:37.748Z,80.22
2023-01-21T10:23:21.549Z,80.03
2023-01-21T10:25:49.814Z,86.30
2023-01-21T10:28:24.075Z,84.95
2023-01-21T10:30:58.006Z,80.03
2023-01-21T10:33:26.828Z,80.82
2023-01-21T10:36:24.444Z,83.88
2023-01-21T10:39:03.562Z,85.45
2023-01-21T10:41:50.740Z,86.75
2023-01-21T10:44:43.408Z,82.32
2023-01-21T10:47:09.828Z,84.65
2023-01-21T10:49:45.954Z,76.97
2023-01-21T10:52:45.165Z,78.90
2023-01-21T10:55:59.761Z,78.88
2023-01-21T10:58:32.685Z,78.68
2023-01-21T11:01:03.058Z,71.07
2023-01-21T11:03:43.448Z,69.75
2023-01-21T11:06:13.905Z,72.30
2023-01-21T11:08:43.925Z,73.30
2023-01-21T11:11:12.417Z,72.05
2023-01-21T11:13:41.143Z,74.22
2023-01-21T11:16:08.227Z,67.22
2023-01-21T11:18:42.791Z,60.58
2023-01-21T11:21:18.742Z,58.42
2023-01-21T11:24:03.621Z,61.33
2023-01-21T11:26:35.024Z,56.47
2023-01-21T11:29:13.562Z,54.33
2023-01-21T11:31:42.290Z,57.63
2023-01-21T11:34:15.419Z,57.03
2023-01-21T11:37:05.934Z,53.10
2023-01-21T11:39:35.336Z,50.67
2023-01-21T11:42:08.475Z,50.65
2023-01-21T11:44:34.898Z,47.65
2023-01-21T11:47:01.464Z,54.78
2023-01-21T11:49:31.738Z,50.38
2023-01-21T11:52:19.527Z,48.35
2023-01-21T11:54:47.834Z,52.60
2023-01-21T11:57:32.795Z,43.15
2023-01-21T12:00:07.451Z,49.85
2023-01-21T12:02:47.614Z,48.92
2023-01-21T12:05:29.167Z,52.70
2023-01-21T12:07:56.211Z,46.28
2023-01-21T12:10:42.657Z,47.20
2023-01-21T12:13:17.341Z,48.25
2023-01-21T12:16:06.027Z,44.85
2023-01-21T12:19:07.579Z,45.92
2023-01-21T12:21:55.789Z,46.60
2023-01-21T12:25:06.495Z,47.35
2023-01-21T12:27:50.406Z,42.70
2023-01-21T12:30:32.276Z,42.20
2023-01-21T12:33:03.689Z,39.03
2023-01-21T12:35:39.410Z,42.28
2023-01-21T12:38:13.519Z,45.72
2023-01-21T12:41:01.245Z,44.03
2023-01-21T12:43:37.875Z,40.00
2023-01-21T12:46:11.772Z,43.45
2023-01-21T12:48:48.703Z,39.78
2023-01-21T12:51:27.975Z,40.70
2023-01-21T12:54:19.191Z,41.50
2023-01-21T12:57:18.123Z,37.20
2023-01-21T12:59:53.756Z,40.63
2023-01-21T13:02:35.548Z,40.05
2023-01-21T13:05:23.318Z,36.85
2023-01-21T13:08:27.276Z,38.53
2023-01-21T13:11:03.104Z,37.50
2023-01-21T13:13:42.452Z,37.83
2023-01-21T13:16:11.065Z,37.72
2023-01-21T13:18:41.323Z,32.47
2023-01-21T13:21:21.568Z,36.05
2023-01-21T13:23:54.122Z,36.15
2023-01-21T13:26:46.523Z,36.83
2023-01-21T13:29:40.817Z,31.48
2023-01-21T13:32:29.154Z,30.98
2023-01-21T13:35:15.764Z,31.35
2023-01-21T13:38:04.876Z,32.20
2023-01-21T13:40:47.030Z,32.80
2023-01-21T13:43:28.037Z,32.17
2023-01-21T13:46:20.391Z,37.20
2023-01-21T13:49:33.449Z,30.50
2023-01-21T13:52:03.750Z,31.13
2023-01-21T13:54:45.561Z,30.52
2023-01-21T13:57:15.211Z,28.40
2023-01-21T13:59:47.715Z,32.63
2023-01-21T14:02:28.927Z,28.83
2023-01-21T14:05:22.641Z,29.10
2023-01-21T14:07:52.075Z,27.33
2023-01-21T14:10:29.182Z,29.92
2023-01-21T14:13:14.015Z,28.55
2023-01-21T14:16:02.810Z,30.70
2023-01-21T14:18:52.323Z,27.55
2023-01-21T14:21:31.198Z,28.23
2023-01-21T14:24:35.286Z,27.48
2023-01-21T14:27:26.851Z,29.15
2023-01-21T14:30:05.632Z,29.70
2023-01-21T14:32:41.167Z,27.98
2023-01-21T14:35:13.805Z,28.88
2023-01-21T14:37:44.071Z,24.60
2023-01-21T14:40:17.678Z,26.40
2023-01-21T14:42:45.750Z,27.27
2023-01-21T14:45:14.573Z,32.10
2023-01-21T14:47:53.192Z,32.13
2023-01-21T14:50:46.838Z,29.17
2023-01-21T14:53:25.642Z,35.60
2023-01-21T14:56:16.123Z,40.47
2023-01-21T14:59:04.877Z,33.13
2023-01-21T15:01:43.578Z,28.73
2023-01-21T15:04:35.402Z,28.85
2023-01-21T15:07:09.355Z,30.35
2023-01-21T15:09:41.406Z,29.52
2023-01-21T15:12:15.583Z,34.85
2023-01-21T15:14:43.064Z,28.50
2023-01-21T15:17:47.899Z,32.90
2023-01-21T15:20:42.395Z,34.45
2023-01-21T15:23:30.230Z,31.13
2023-01-21T15:26:02.868Z,30.35
2023-01-21T15:28:44.656Z,31.17
2023-01-21T15:31:20.495Z,31.00
2023-01-21T15:34:00.606Z,29.67
2023-01-21T15:36:31.079Z,30.20
2023-01-21T15:39:16.271Z,30.75
2023-01-21T15:41:54.943Z,29.75
2023-01-21T15:44:46.493Z,26.58
2023-01-21T15:47:31.709Z,26.88
2023-01-21T15:50:04.240Z,26.92
2023-01-21T15:53:01.850Z,28.00
2023-01-21T15:55:59.361Z,27.77
2023-01-21T15:58:51.051Z,30.42
2023-01-21T16:01:37.963Z,25.42
2023-01-21T16:04:17.974Z,24.33
2023-01-21T16:07:10.352Z,22.75
2023-01-21T16:10:11.829Z,22.13
2023-01-21T16:13:04.677Z,22.65
2023-01-21T16:15:37.118Z,23.00
2023-01-21T16:18:40.937Z,24.10
2023-01-21T16:21:07.956Z,22.17
2023-01-21T16:23:39.406Z,22.58
2023-01-21T16:26:05.977Z,23.25
2023-01-21T16:28:44.007Z,22.58
2023-01-21T16:31:10.720Z,24.42
2023-01-21T16:33:37.225Z,24.15
2023-01-21T16:36:07.380Z,22.38
2023-01-21T16:38:36.376Z,24.83
2023-01-21T16:41:15.247Z,22.38
2023-01-21T16:43:48.936Z,22.85
2023-01-21T16:46:18.251Z,23.15
2023-01-21T16:48:50.153Z,26.63
2023-01-21T16:51:23.609Z,24.67
2023-01-21T16:53:53.757Z,19.85
2023-01-21T16:56:28.736Z,17.63
2023-01-21T16:58:58.650Z,18.15
2023-01-21T17:01:27.715Z,18.42
2023-01-21T17:03:55.318Z,18.58
2023-01-21T17:06:29.151Z,17.48
2023-01-21T17:09:00.584Z,21.48
2023-01-21T17:11:27.878Z,20.77
2023-01-21T17:13:54.540Z,21.77
2023-01-21T17:16:30.592Z,26.15
2023-01-21T17:19:01.337Z,24.40
2023-01-21T17:21:40.125Z,25.02
2023-01-21T17:24:36.725Z,21.08
2023-01-21T17:27:10.091Z,22.55
2023-01-21T17:29:37.274Z,22.33
2023-01-21T17:32:05.304Z,20.33
2023-01-21T17:34:36.360Z,19.67
2023-01-21T17:37:05.344Z,21.55
2023-01-21T17:39:47.967Z,23.20
2023-01-21T17:42:23.238Z,22.15
2023-01-21T17:44:53.239Z,22.50
2023-01-21T17:47:59.103Z,21.52
2023-01-21T17:50:29.686Z,21.65
2023-01-21T17:53:06.957Z,25.50
2023-01-21T17:55:36.214Z,26.73
2023-01-21T17:58:05.676Z,23.27
2023-01-21T18:00:36.893Z,24.08
2023-01-21T18:03:03.522Z,24.88
2023-01-21T18:05:30.683Z,21.55
2023-01-21T18:07:57.436Z,25.00
2023-01-21T18:10:29.779Z,27.58
2023-01-21T18:12:58.167Z,23.98
2023-01-21T18:15:25.857Z,26.17
2023-01-21T18:18:02.055Z,26.55
2023-01-21T18:20:30.117Z,29.23
2023-01-21T18:22:58.592Z,28.00
2023-01-21T18:25:27.177Z,26.17
2023-01-21T18:27:57.222Z,29.25
2023-01-21T18:30:27.043Z,26.15
2023-01-21T18:32:54.872Z,26.38
2023-01-21T18:35:26.472Z,27.08
2023-01-21T18:37:53.543Z,27.02
2023-01-21T18:40:22.437Z,29.80
2023-01-21T18:42:55.319Z,28.55
2023-01-21T18:45:25.621Z,28.48
2023-01-21T18:47:52.761Z,28.67
2023-01-21T18:50:22.043Z,29.83
2023-01-21T18:52:49.087Z,29.40
2023-01-21T18:55:17.695Z,31.02
2023-01-21T18:57:48.161Z,30.45
2023-01-21T19:00:20.737Z,30.48
2023-01-21T19:02:47.371Z,29.27
2023-01-21T19:05:14.434Z,32.45
2023-01-21T19:07:41.411Z,30.63
2023-01-21T19:10:13.658Z,30.83
2023-01-21T19:12:40.110Z,30.73
2023-01-21T19:15:08.553Z,33.28
2023-01-21T19:17:35.214Z,33.45
2023-01-21T19:20:01.957Z,37.90
2023-01-21T19:22:28.571Z,36.67
2023-01-21T19:24:55.007Z,32.13
2023-01-21T19:27:42.979Z,38.35
2023-01-21T19:30:19.876Z,38.33
2023-01-21T19:32:46.807Z,39.17
2023-01-21T19:35:17.619Z,42.28
2023-01-21T19:37:49.192Z,42.63
2023-01-21T19:40:19.140Z,45.05
2023-01-21T19:42:46.491Z,42.85
2023-01-21T19:45:14.273Z,41.25
2023-01-21T19:47:43.121Z,43.17
2023-01-21T19:50:23.702Z,42.10
2023-01-21T19:52:51.346Z,41.00
2023-01-21T19:55:23.035Z,49.05
2023-01-21T19:57:56.814Z,45.92
2023-01-21T20:00:24.523Z,48.15
2023-01-21T20:02:51.483Z,47.65
2023-01-21T20:05:18.586Z,43.92
2023-01-21T20:07:47.488Z,45.28
2023-01-21T20:10:16.527Z,46.60
2023-01-21T20:12:46.212Z,49.35
2023-01-21T20:15:14.259Z,49.92
2023-01-21T20:17:43.675Z,45.90
2023-01-21T20:20:18.223Z,45.33
2023-01-21T20:22:45.317Z,49.13
2023-01-21T20:25:17.098Z,48.83
2023-01-21T20:27:49.776Z,48.00
2023-01-21T20:30:18.510Z,44.20
2023-01-21T20:32:45.825Z,43.25
2023-01-21T20:35:15.645Z,51.28
2023-01-21T20:37:45.396Z,46.05
2023-01-21T20:40:22.634Z,45.50
2023-01-21T20:42:50.153Z,46.20
2023-01-21T20:45:18.353Z,47.35
2023-01-21T20:47:51.068Z,44.95
2023-01-21T20:50:21.809Z,49.92
2023-01-21T20:52:49.666Z,42.88
2023-01-21T20:55:20.737Z,46.15
2023-01-21T20:57:47.735Z,44.47
2023-01-21T21:00:17.047Z,45.17
2023-01-21T21:02:43.756Z,45.42
2023-01-21T21:05:11.548Z,48.17
2023-01-21T21:07:38.077Z,42.03
2023-01-21T21:10:05.356Z,44.22
2023-01-21T21:12:31.794Z,43.15
2023-01-21T21:14:58.242Z,44.85
2023-01-21T21:17:24.724Z,47.13
2023-01-21T21:19:51.146Z,47.05
2023-01-21T21:22:17.650Z,48.63
2023-01-21T21:24:44.069Z,48.55
2023-01-21T21:27:11.996Z,45.92
2023-01-21T21:29:38.435Z,51.42
2023-01-21T21:32:06.780Z,46.67
2023-01-21T21:34:34.245Z,46.55
2023-01-21T21:37:00.666Z,47.13
2023-01-21T21:39:27.588Z,43.72
2023-01-21T21:42:15.038Z,43.13
2023-01-21T21:44:43.268Z,43.60
2023-01-21T21:47:31.483Z,46.92
2023-01-21T21:49:58.107Z,41.25
2023-01-21T21:52:24.577Z,46.88
2023-01-21T21:54:51.196Z,45.35
2023-01-21T21:57:17.653Z,44.15
2023-01-21T21:59:44.069Z,47.58
2023-01-21T22:02:12.184Z,45.42
2023-01-21T22:04:38.770Z,44.83
2023-01-21T22:07:05.301Z,44.95
2023-01-21T22:09:33.993Z,44.85
2023-01-21T22:12:01.208Z,50.42
2023-01-21T22:14:27.992Z,43.50
2023-01-21T22:16:54.591Z,50.67
2023-01-21T22:19:21.056Z,43.72
2023-01-21T22:21:47.535Z,48.78
2023-01-21T22:24:15.621Z,44.05
2023-01-21T22:26:42.125Z,44.88
2023-01-21T22:29:08.667Z,48.85
2023-01-21T22:31:35.366Z,49.25
2023-01-21T22:34:01.980Z,45.88
2023-01-21T22:36:30.301Z,44.53
2023-01-21T22:38:57.269Z,49.92
2023-01-21T22:41:25.142Z,45.70
2023-01-21T22:43:52.598Z,46.88
2023-01-21T22:46:22.016Z,47.10
2023-01-21T22:48:49.072Z,48.50
2023-01-21T22:51:18.478Z,47.65
2023-01-21T22:53:45.063Z,43.17
2023-01-21T22:56:13.656Z,49.17
2023-01-21T22:58:40.551Z,45.20
2023-01-21T23:01:08.044Z,47.88
2023-01-21T23:03:34.603Z,50.17
2023-01-21T23:06:08.405Z,44.65
2023-01-21T23:08:37.543Z,47.55
2023-01-21T23:11:06.140Z,50.05
2023-01-21T23:13:33.759Z,43.00
2023-01-21T23:16:01.012Z,49.78
2023-01-21T23:18:28.634Z,46.47
2023-01-21T23:20:55.820Z,43.17
2023-01-21T23:23:22.252Z,43.55
2023-01-21T23:25:49.461Z,46.17
2023-01-21T23:28:15.986Z,43.47
2023-01-21T23:30:42.744Z,44.13
2023-01-21T23:33:11.520Z,43.17
2023-01-21T23:35:37.961Z,43.70
2023-01-21T23:38:04.517Z,42.60
2023-01-21T23:40:31.000Z,39.92
2023-01-21T23:42:57.765Z,40.58
2023-01-21T23:45:24.556Z,45.38
2023-01-21T23:47:51.136Z,42.08
2023-01-21T23:50:17.963Z,39.47
2023-01-21T23:52:44.646Z,40.72
2023-01-21T23:55:11.523Z,41.60
2023-01-21T23:57:37.948Z,42.78
